This is the latest recevied weather packets stored in our database for station/object N7SHZ. If no packets are shown the sender has not sent any weather packets the latest 10 day(s).
| Time | Temp. | Humidity | Pressure | Rain* | Wind** | Luminosity | Snow |
|---|---|---|---|---|---|---|---|
| 1777580353 | 0.56° C | 74% | 1036.3 hPa | - | - | 1107 W/m² | - |
| 1777580049 | 0.56° C | 75% | 1036.2 hPa | - | - | 1008 W/m² | - |
| 1777579746 | 0.56° C | 81% | 1036.2 hPa | - | - | 1020 W/m² | - |
| 1777579443 | 0° C | 84% | 1036.3 hPa | - | - | 562 W/m² | - |
| 1777579139 | 0.56° C | 82% | 1036.3 hPa | - | - | 333 W/m² | - |
| 1777578839 | 0° C | 84% | 1036.3 hPa | - | - | 1009 W/m² | - |
| 1777578535 | 0° C | 82% | 1036.1 hPa | - | - | 512 W/m² | - |
| 1777577319 | 0° C | 86% | 1036.3 hPa | - | - | 318 W/m² | - |
| 1777574891 | -1.11° C | 92% | 1037 hPa | - | - | 860 W/m² | - |
| 1777573675 | -0.56° C | 93% | 1036.9 hPa | - | - | 990 W/m² | - |
| 1777573067 | -1.11° C | 94% | 1037 hPa | - | - | 1080 W/m² | - |
| 1777572155 | -1.11° C | 97% | 1037 hPa | - | - | 609 W/m² | - |
| 1777570635 | -1.67° C | 98% | 1037.1 hPa | - | - | 367 W/m² | - |
| 1777569413 | -2.22° C | 97% | 1037.1 hPa | - | - | 350 W/m² | - |
| 1777567589 | -2.22° C | 98% | 1037 hPa | - | - | 170 W/m² | - |
| 1777566985 | -2.22° C | 98% | 1037 hPa | - | - | 157 W/m² | - |
| 1777565468 | -2.78° C | 98% | 1036.9 hPa | - | - | 163 W/m² | - |
| 1777565165 | -2.78° C | 98% | 1037 hPa | - | - | 233 W/m² | - |
| 1777564861 | -2.78° C | 98% | 1036.7 hPa | - | - | 185 W/m² | - |
| 1777564556 | -2.78° C | 98% | 1036.7 hPa | - | - | 112 W/m² | - |
| 1777563948 | -2.78° C | 98% | 1036.6 hPa | - | - | 193 W/m² | - |
| 1777563343 | -2.78° C | 98% | 1036.9 hPa | - | - | 116 W/m² | - |
| 1777562736 | -2.78° C | 98% | 1036.6 hPa | - | - | 140 W/m² | - |
| 1777562435 | -2.78° C | 98% | 1036.7 hPa | - | - | 87 W/m² | - |
| 1777561526 | -3.33° C | 98% | 1036.6 hPa | - | - | 98 W/m² | - |
* Rain since midnight (hover to see other rain measurements)
** Current wind speed in m/s (hover to see current wind gust speed)